sensor_id;sensor_type;location;lat;lon;timestamp;temperature;humidity
22321;DHT22;11328;53.928;18.522;2022-11-20T00:01:30;0.70;99.90
22321;DHT22;11328;53.928;18.522;2022-11-20T00:03:58;0.70;99.90
22321;DHT22;11328;53.928;18.522;2022-11-20T00:06:27;0.70;99.90
22321;DHT22;11328;53.928;18.522;2022-11-20T00:08:57;0.60;99.90
22321;DHT22;11328;53.928;18.522;2022-11-20T00:11:27;0.70;99.90
22321;DHT22;11328;53.928;18.522;2022-11-20T00:25:19;0.70;99.90
22321;DHT22;11328;53.928;18.522;2022-11-20T00:27:46;1.50;99.90
22321;DHT22;11328;53.928;18.522;2022-11-20T00:30:13;1.30;99.90
22321;DHT22;11328;53.928;18.522;2022-11-20T00:32:41;1.20;99.90
22321;DHT22;11328;53.928;18.522;2022-11-20T00:35:08;1.10;99.90
22321;DHT22;11328;53.928;18.522;2022-11-20T00:37:35;1.00;99.90
22321;DHT22;11328;53.928;18.522;2022-11-20T00:40:02;1.00;99.90
22321;DHT22;11328;53.928;18.522;2022-11-20T00:42:29;1.00;99.90
22321;DHT22;11328;53.928;18.522;2022-11-20T00:44:57;1.00;99.90
22321;DHT22;11328;53.928;18.522;2022-11-20T00:47:24;0.90;99.90
22321;DHT22;11328;53.928;18.522;2022-11-20T00:49:51;0.80;99.90
22321;DHT22;11328;53.928;18.522;2022-11-20T00:52:18;0.80;99.90
22321;DHT22;11328;53.928;18.522;2022-11-20T00:54:45;0.80;99.90
22321;DHT22;11328;53.928;18.522;2022-11-20T00:57:12;0.70;99.90
22321;DHT22;11328;53.928;18.522;2022-11-20T00:59:39;0.70;99.90
22321;DHT22;11328;53.928;18.522;2022-11-20T01:02:06;0.70;99.90
22321;DHT22;11328;53.928;18.522;2022-11-20T01:04:33;0.70;99.90
22321;DHT22;11328;53.928;18.522;2022-11-20T01:06:59;0.60;99.90
22321;DHT22;11328;53.928;18.522;2022-11-20T01:09:26;0.60;99.90
22321;DHT22;11328;53.928;18.522;2022-11-20T01:11:53;0.60;99.90
22321;DHT22;11328;53.928;18.522;2022-11-20T01:14:20;0.60;99.90
22321;DHT22;11328;53.928;18.522;2022-11-20T01:16:50;0.60;99.90
22321;DHT22;11328;53.928;18.522;2022-11-20T01:19:20;0.60;99.90
22321;DHT22;11328;53.928;18.522;2022-11-20T01:21:51;0.60;99.90
22321;DHT22;11328;53.928;18.522;2022-11-20T01:24:21;0.60;99.90
22321;DHT22;11328;53.928;18.522;2022-11-20T01:26:50;0.60;99.90
22321;DHT22;11328;53.928;18.522;2022-11-20T01:29:23;0.60;99.90
22321;DHT22;11328;53.928;18.522;2022-11-20T01:31:51;0.60;99.90
22321;DHT22;11328;53.928;18.522;2022-11-20T01:34:20;0.60;99.90
22321;DHT22;11328;53.928;18.522;2022-11-20T01:36:49;0.60;99.90
22321;DHT22;11328;53.928;18.522;2022-11-20T01:39:18;0.60;99.90
22321;DHT22;11328;53.928;18.522;2022-11-20T01:41:49;0.60;99.90
22321;DHT22;11328;53.928;18.522;2022-11-20T01:44:47;0.60;99.90
22321;DHT22;11328;53.928;18.522;2022-11-20T01:47:27;0.60;99.90
22321;DHT22;11328;53.928;18.522;2022-11-20T01:55:27;0.70;99.90
22321;DHT22;11328;53.928;18.522;2022-11-20T01:57:57;0.70;99.90
22321;DHT22;11328;53.928;18.522;2022-11-20T02:00:26;0.70;99.90
22321;DHT22;11328;53.928;18.522;2022-11-20T02:03:06;0.60;99.90
22321;DHT22;11328;53.928;18.522;2022-11-20T02:05:44;0.60;99.90
22321;DHT22;11328;53.928;18.522;2022-11-20T02:08:16;0.60;99.90
22321;DHT22;11328;53.928;18.522;2022-11-20T02:10:44;0.70;99.90
22321;DHT22;11328;53.928;18.522;2022-11-20T02:13:11;0.70;99.90
22321;DHT22;11328;53.928;18.522;2022-11-20T02:15:57;0.70;99.90
22321;DHT22;11328;53.928;18.522;2022-11-20T02:18:24;0.70;99.90
22321;DHT22;11328;53.928;18.522;2022-11-20T02:20:55;0.80;99.90
22321;DHT22;11328;53.928;18.522;2022-11-20T02:23:36;0.80;99.90
22321;DHT22;11328;53.928;18.522;2022-11-20T02:26:13;0.70;99.90
22321;DHT22;11328;53.928;18.522;2022-11-20T02:28:43;0.70;99.90
22321;DHT22;11328;53.928;18.522;2022-11-20T02:31:10;0.70;99.90
22321;DHT22;11328;53.928;18.522;2022-11-20T02:33:37;0.80;99.90
22321;DHT22;11328;53.928;18.522;2022-11-20T02:36:04;0.80;99.90
22321;DHT22;11328;53.928;18.522;2022-11-20T02:38:32;0.90;99.90
22321;DHT22;11328;53.928;18.522;2022-11-20T02:40:59;0.90;99.90
22321;DHT22;11328;53.928;18.522;2022-11-20T02:43:26;0.90;99.90
22321;DHT22;11328;53.928;18.522;2022-11-20T02:45:52;0.90;99.90
22321;DHT22;11328;53.928;18.522;2022-11-20T02:48:20;0.90;99.90
22321;DHT22;11328;53.928;18.522;2022-11-20T02:50:50;0.90;99.90
22321;DHT22;11328;53.928;18.522;2022-11-20T02:53:16;0.80;99.90
22321;DHT22;11328;53.928;18.522;2022-11-20T02:55:43;0.80;99.90
22321;DHT22;11328;53.928;18.522;2022-11-20T02:58:10;0.80;99.90
22321;DHT22;11328;53.928;18.522;2022-11-20T03:00:40;0.80;99.90
22321;DHT22;11328;53.928;18.522;2022-11-20T03:03:07;0.80;99.90
22321;DHT22;11328;53.928;18.522;2022-11-20T03:05:34;0.70;99.90
22321;DHT22;11328;53.928;18.522;2022-11-20T03:08:01;0.70;99.90
22321;DHT22;11328;53.928;18.522;2022-11-20T03:10:28;0.70;99.90
22321;DHT22;11328;53.928;18.522;2022-11-20T03:12:55;0.60;99.90
22321;DHT22;11328;53.928;18.522;2022-11-20T03:15:23;0.50;99.90
22321;DHT22;11328;53.928;18.522;2022-11-20T03:17:53;0.50;99.90
22321;DHT22;11328;53.928;18.522;2022-11-20T03:20:22;0.50;99.90
22321;DHT22;11328;53.928;18.522;2022-11-20T03:22:49;0.50;99.90
22321;DHT22;11328;53.928;18.522;2022-11-20T03:25:16;0.40;99.90
22321;DHT22;11328;53.928;18.522;2022-11-20T03:27:43;0.40;99.90
22321;DHT22;11328;53.928;18.522;2022-11-20T03:30:10;0.40;99.90
22321;DHT22;11328;53.928;18.522;2022-11-20T03:32:37;0.30;99.90
22321;DHT22;11328;53.928;18.522;2022-11-20T03:35:05;0.30;99.90
22321;DHT22;11328;53.928;18.522;2022-11-20T03:37:32;0.30;99.90
22321;DHT22;11328;53.928;18.522;2022-11-20T03:39:59;0.30;99.90
22321;DHT22;11328;53.928;18.522;2022-11-20T03:42:26;0.30;99.90
22321;DHT22;11328;53.928;18.522;2022-11-20T03:45:16;0.30;99.90
22321;DHT22;11328;53.928;18.522;2022-11-20T03:47:45;0.20;99.90
22321;DHT22;11328;53.928;18.522;2022-11-20T03:50:13;0.20;99.90
22321;DHT22;11328;53.928;18.522;2022-11-20T03:52:40;0.20;99.90
22321;DHT22;11328;53.928;18.522;2022-11-20T03:55:08;0.20;99.90
22321;DHT22;11328;53.928;18.522;2022-11-20T03:57:35;0.20;99.90
22321;DHT22;11328;53.928;18.522;2022-11-20T04:00:03;0.30;99.90
22321;DHT22;11328;53.928;18.522;2022-11-20T04:02:31;0.30;99.90
22321;DHT22;11328;53.928;18.522;2022-11-20T04:16:22;0.40;99.90
22321;DHT22;11328;53.928;18.522;2022-11-20T04:18:55;1.40;99.90
22321;DHT22;11328;53.928;18.522;2022-11-20T04:21:24;1.20;99.90
22321;DHT22;11328;53.928;18.522;2022-11-20T04:23:52;1.10;99.90
22321;DHT22;11328;53.928;18.522;2022-11-20T04:26:22;1.00;99.90
22321;DHT22;11328;53.928;18.522;2022-11-20T04:28:50;0.90;99.90
22321;DHT22;11328;53.928;18.522;2022-11-20T04:31:25;0.90;99.90
22321;DHT22;11328;53.928;18.522;2022-11-20T04:33:54;0.90;99.90
22321;DHT22;11328;53.928;18.522;2022-11-20T04:36:24;0.80;99.90
22321;DHT22;11328;53.928;18.522;2022-11-20T04:38:58;0.80;99.90
22321;DHT22;11328;53.928;18.522;2022-11-20T04:41:30;0.70;99.90
22321;DHT22;11328;53.928;18.522;2022-11-20T04:44:00;0.70;99.90
22321;DHT22;11328;53.928;18.522;2022-11-20T04:46:35;0.70;99.90
22321;DHT22;11328;53.928;18.522;2022-11-20T04:49:04;0.60;99.90
22321;DHT22;11328;53.928;18.522;2022-11-20T04:51:32;0.70;99.90
22321;DHT22;11328;53.928;18.522;2022-11-20T04:54:00;0.70;99.90
22321;DHT22;11328;53.928;18.522;2022-11-20T04:56:27;0.70;99.90
22321;DHT22;11328;53.928;18.522;2022-11-20T04:58:54;0.80;99.90
22321;DHT22;11328;53.928;18.522;2022-11-20T05:01:23;0.70;99.90
22321;DHT22;11328;53.928;18.522;2022-11-20T05:03:51;0.80;99.90
22321;DHT22;11328;53.928;18.522;2022-11-20T05:06:19;0.80;99.90
22321;DHT22;11328;53.928;18.522;2022-11-20T05:08:48;0.80;99.90
22321;DHT22;11328;53.928;18.522;2022-11-20T05:11:18;0.80;99.90
22321;DHT22;11328;53.928;18.522;2022-11-20T05:13:46;0.80;99.90
22321;DHT22;11328;53.928;18.522;2022-11-20T05:16:20;0.70;99.90
22321;DHT22;11328;53.928;18.522;2022-11-20T05:18:53;0.70;99.90
22321;DHT22;11328;53.928;18.522;2022-11-20T05:21:21;0.80;99.90
22321;DHT22;11328;53.928;18.522;2022-11-20T05:23:48;0.80;99.90
22321;DHT22;11328;53.928;18.522;2022-11-20T05:26:17;0.80;99.90
22321;DHT22;11328;53.928;18.522;2022-11-20T05:28:46;0.80;99.90
22321;DHT22;11328;53.928;18.522;2022-11-20T05:31:21;0.80;99.90
22321;DHT22;11328;53.928;18.522;2022-11-20T05:33:54;0.80;99.90
22321;DHT22;11328;53.928;18.522;2022-11-20T05:36:23;0.80;99.90
22321;DHT22;11328;53.928;18.522;2022-11-20T05:38:50;0.80;99.90
22321;DHT22;11328;53.928;18.522;2022-11-20T05:41:22;0.80;99.90
22321;DHT22;11328;53.928;18.522;2022-11-20T05:43:49;0.80;99.90
22321;DHT22;11328;53.928;18.522;2022-11-20T05:46:19;0.80;99.90
22321;DHT22;11328;53.928;18.522;2022-11-20T05:48:54;0.80;99.90
22321;DHT22;11328;53.928;18.522;2022-11-20T05:51:23;0.70;99.90
22321;DHT22;11328;53.928;18.522;2022-11-20T05:53:50;0.70;99.90
22321;DHT22;11328;53.928;18.522;2022-11-20T05:56:19;0.60;99.90
22321;DHT22;11328;53.928;18.522;2022-11-20T05:58:48;0.70;99.90
22321;DHT22;11328;53.928;18.522;2022-11-20T06:01:21;0.70;99.90
22321;DHT22;11328;53.928;18.522;2022-11-20T06:03:50;0.70;99.90
22321;DHT22;11328;53.928;18.522;2022-11-20T06:06:19;0.70;99.90
22321;DHT22;11328;53.928;18.522;2022-11-20T06:08:46;0.70;99.90
22321;DHT22;11328;53.928;18.522;2022-11-20T06:11:15;0.70;99.90
22321;DHT22;11328;53.928;18.522;2022-11-20T06:13:43;0.70;99.90
22321;DHT22;11328;53.928;18.522;2022-11-20T06:16:12;0.70;99.90
22321;DHT22;11328;53.928;18.522;2022-11-20T06:18:41;0.70;99.90
22321;DHT22;11328;53.928;18.522;2022-11-20T06:21:11;0.70;99.90
22321;DHT22;11328;53.928;18.522;2022-11-20T06:23:46;0.70;99.90
22321;DHT22;11328;53.928;18.522;2022-11-20T06:26:17;0.60;99.90
22321;DHT22;11328;53.928;18.522;2022-11-20T06:28:49;0.60;99.90
22321;DHT22;11328;53.928;18.522;2022-11-20T06:31:20;0.70;99.90
22321;DHT22;11328;53.928;18.522;2022-11-20T06:33:48;0.70;99.90
22321;DHT22;11328;53.928;18.522;2022-11-20T06:36:17;0.70;99.90
22321;DHT22;11328;53.928;18.522;2022-11-20T06:38:46;0.70;99.90
22321;DHT22;11328;53.928;18.522;2022-11-20T06:41:15;0.80;99.90
22321;DHT22;11328;53.928;18.522;2022-11-20T06:43:43;0.70;99.90
22321;DHT22;11328;53.928;18.522;2022-11-20T06:46:12;0.70;99.90
22321;DHT22;11328;53.928;18.522;2022-11-20T06:48:40;0.80;99.90
22321;DHT22;11328;53.928;18.522;2022-11-20T06:51:07;0.80;99.90
22321;DHT22;11328;53.928;18.522;2022-11-20T06:53:35;0.80;99.90
22321;DHT22;11328;53.928;18.522;2022-11-20T06:56:04;0.80;99.90
22321;DHT22;11328;53.928;18.522;2022-11-20T06:58:33;0.80;99.90
22321;DHT22;11328;53.928;18.522;2022-11-20T07:01:04;0.70;99.90
22321;DHT22;11328;53.928;18.522;2022-11-20T07:03:33;0.70;99.90
22321;DHT22;11328;53.928;18.522;2022-11-20T07:06:01;0.70;99.90
22321;DHT22;11328;53.928;18.522;2022-11-20T07:08:29;0.70;99.90
22321;DHT22;11328;53.928;18.522;2022-11-20T07:11:00;0.70;99.90
22321;DHT22;11328;53.928;18.522;2022-11-20T07:13:29;0.70;99.90
22321;DHT22;11328;53.928;18.522;2022-11-20T07:16:02;0.80;99.90
22321;DHT22;11328;53.928;18.522;2022-11-20T07:18:31;0.70;99.90
22321;DHT22;11328;53.928;18.522;2022-11-20T07:21:08;0.70;99.90
22321;DHT22;11328;53.928;18.522;2022-11-20T07:37:07;0.80;99.90
22321;DHT22;11328;53.928;18.522;2022-11-20T07:39:36;1.80;99.90
22321;DHT22;11328;53.928;18.522;2022-11-20T07:42:03;1.60;99.90
22321;DHT22;11328;53.928;18.522;2022-11-20T07:44:30;1.60;99.90
22321;DHT22;11328;53.928;18.522;2022-11-20T07:46:57;1.50;99.90
22321;DHT22;11328;53.928;18.522;2022-11-20T07:49:23;1.40;99.90
22321;DHT22;11328;53.928;18.522;2022-11-20T07:51:51;1.40;99.90
22321;DHT22;11328;53.928;18.522;2022-11-20T07:54:21;1.30;99.90
22321;DHT22;11328;53.928;18.522;2022-11-20T07:56:49;1.30;99.90
22321;DHT22;11328;53.928;18.522;2022-11-20T07:59:16;1.20;99.90
22321;DHT22;11328;53.928;18.522;2022-11-20T08:01:43;1.30;99.90
22321;DHT22;11328;53.928;18.522;2022-11-20T08:04:10;1.30;99.90
22321;DHT22;11328;53.928;18.522;2022-11-20T08:06:37;1.30;99.90
22321;DHT22;11328;53.928;18.522;2022-11-20T08:09:04;1.40;99.90
22321;DHT22;11328;53.928;18.522;2022-11-20T08:11:31;1.40;99.90
22321;DHT22;11328;53.928;18.522;2022-11-20T08:14:17;1.30;99.90
22321;DHT22;11328;53.928;18.522;2022-11-20T08:16:48;1.30;99.90
22321;DHT22;11328;53.928;18.522;2022-11-20T08:19:18;1.40;99.90
22321;DHT22;11328;53.928;18.522;2022-11-20T08:21:46;1.40;99.90
22321;DHT22;11328;53.928;18.522;2022-11-20T08:24:13;1.40;99.90
22321;DHT22;11328;53.928;18.522;2022-11-20T08:26:40;1.50;99.90
22321;DHT22;11328;53.928;18.522;2022-11-20T08:29:07;1.50;99.90
22321;DHT22;11328;53.928;18.522;2022-11-20T08:31:35;1.50;99.90
22321;DHT22;11328;53.928;18.522;2022-11-20T08:34:02;1.60;99.90
22321;DHT22;11328;53.928;18.522;2022-11-20T08:36:35;1.70;99.90
22321;DHT22;11328;53.928;18.522;2022-11-20T08:39:03;1.70;99.90
22321;DHT22;11328;53.928;18.522;2022-11-20T08:41:30;1.80;99.90
22321;DHT22;11328;53.928;18.522;2022-11-20T08:44:02;1.90;99.90
22321;DHT22;11328;53.928;18.522;2022-11-20T08:46:39;2.00;99.90
22321;DHT22;11328;53.928;18.522;2022-11-20T08:49:12;2.10;99.90
22321;DHT22;11328;53.928;18.522;2022-11-20T08:51:41;2.20;99.90
22321;DHT22;11328;53.928;18.522;2022-11-20T08:54:09;2.30;99.90
22321;DHT22;11328;53.928;18.522;2022-11-20T08:56:36;2.30;99.90
22321;DHT22;11328;53.928;18.522;2022-11-20T08:59:03;2.40;99.90
22321;DHT22;11328;53.928;18.522;2022-11-20T09:01:50;2.40;99.90
22321;DHT22;11328;53.928;18.522;2022-11-20T09:04:17;2.40;99.90
22321;DHT22;11328;53.928;18.522;2022-11-20T09:06:44;2.30;99.90
22321;DHT22;11328;53.928;18.522;2022-11-20T09:09:11;2.30;99.90
22321;DHT22;11328;53.928;18.522;2022-11-20T09:11:38;2.30;99.90
22321;DHT22;11328;53.928;18.522;2022-11-20T09:14:08;2.30;99.90
22321;DHT22;11328;53.928;18.522;2022-11-20T09:16:35;2.20;99.90
22321;DHT22;11328;53.928;18.522;2022-11-20T09:19:02;2.20;99.90
22321;DHT22;11328;53.928;18.522;2022-11-20T09:21:49;2.20;99.90
22321;DHT22;11328;53.928;18.522;2022-11-20T09:24:21;2.20;99.90
22321;DHT22;11328;53.928;18.522;2022-11-20T09:26:48;2.20;99.90
22321;DHT22;11328;53.928;18.522;2022-11-20T09:29:15;2.30;99.90
22321;DHT22;11328;53.928;18.522;2022-11-20T09:31:41;2.40;99.90
22321;DHT22;11328;53.928;18.522;2022-11-20T09:34:08;2.40;99.90
22321;DHT22;11328;53.928;18.522;2022-11-20T09:36:36;2.40;99.90
22321;DHT22;11328;53.928;18.522;2022-11-20T09:39:03;2.50;99.90
22321;DHT22;11328;53.928;18.522;2022-11-20T09:55:51;2.50;99.90
22321;DHT22;11328;53.928;18.522;2022-11-20T09:58:30;2.50;99.90
22321;DHT22;11328;53.928;18.522;2022-11-20T10:01:25;2.50;99.90
22321;DHT22;11328;53.928;18.522;2022-11-20T10:09:59;2.60;99.90
22321;DHT22;11328;53.928;18.522;2022-11-20T10:24:30;2.60;99.90
22321;DHT22;11328;53.928;18.522;2022-11-20T10:27:07;2.60;99.90
22321;DHT22;11328;53.928;18.522;2022-11-20T10:29:38;2.60;99.90
22321;DHT22;11328;53.928;18.522;2022-11-20T10:32:16;2.60;99.90
22321;DHT22;11328;53.928;18.522;2022-11-20T10:35:21;2.60;99.90
22321;DHT22;11328;53.928;18.522;2022-11-20T10:38:15;2.70;99.90
22321;DHT22;11328;53.928;18.522;2022-11-20T10:40:56;2.70;99.90
22321;DHT22;11328;53.928;18.522;2022-11-20T10:43:47;2.70;99.90
22321;DHT22;11328;53.928;18.522;2022-11-20T10:46:20;2.70;99.90
22321;DHT22;11328;53.928;18.522;2022-11-20T10:48:49;2.70;99.90
22321;DHT22;11328;53.928;18.522;2022-11-20T11:00:09;2.70;99.90
22321;DHT22;11328;53.928;18.522;2022-11-20T11:02:58;2.70;99.90
22321;DHT22;11328;53.928;18.522;2022-11-20T11:05:39;2.70;99.90
22321;DHT22;11328;53.928;18.522;2022-11-20T11:08:15;2.80;99.90
22321;DHT22;11328;53.928;18.522;2022-11-20T11:10:53;2.70;99.90
22321;DHT22;11328;53.928;18.522;2022-11-20T11:13:26;2.60;99.90
22321;DHT22;11328;53.928;18.522;2022-11-20T11:15:55;2.60;99.90
22321;DHT22;11328;53.928;18.522;2022-11-20T11:20:57;2.70;99.90
22321;DHT22;11328;53.928;18.522;2022-11-20T11:23:35;2.70;99.90
22321;DHT22;11328;53.928;18.522;2022-11-20T11:26:21;2.70;99.90
22321;DHT22;11328;53.928;18.522;2022-11-20T11:29:00;2.70;99.90
22321;DHT22;11328;53.928;18.522;2022-11-20T11:31:32;2.70;99.90
22321;DHT22;11328;53.928;18.522;2022-11-20T11:34:18;2.70;99.90
22321;DHT22;11328;53.928;18.522;2022-11-20T11:36:57;2.80;99.90
22321;DHT22;11328;53.928;18.522;2022-11-20T11:39:27;2.70;99.90
22321;DHT22;11328;53.928;18.522;2022-11-20T11:41:58;2.70;99.90
22321;DHT22;11328;53.928;18.522;2022-11-20T11:44:33;2.70;99.90
22321;DHT22;11328;53.928;18.522;2022-11-20T11:47:25;2.70;99.90
22321;DHT22;11328;53.928;18.522;2022-11-20T11:52:56;2.70;99.90
22321;DHT22;11328;53.928;18.522;2022-11-20T11:55:46;2.80;99.90
22321;DHT22;11328;53.928;18.522;2022-11-20T11:58:46;2.80;99.90
22321;DHT22;11328;53.928;18.522;2022-11-20T12:01:47;2.70;99.90
22321;DHT22;11328;53.928;18.522;2022-11-20T12:04:23;2.70;99.90
22321;DHT22;11328;53.928;18.522;2022-11-20T12:07:28;2.80;99.90
22321;DHT22;11328;53.928;18.522;2022-11-20T12:12:55;2.80;99.90
22321;DHT22;11328;53.928;18.522;2022-11-20T12:15:30;2.80;99.90
22321;DHT22;11328;53.928;18.522;2022-11-20T12:18:00;2.80;99.90
22321;DHT22;11328;53.928;18.522;2022-11-20T12:20:36;2.80;99.90
22321;DHT22;11328;53.928;18.522;2022-11-20T12:23:34;2.80;99.90
22321;DHT22;11328;53.928;18.522;2022-11-20T12:26:16;2.80;99.90
22321;DHT22;11328;53.928;18.522;2022-11-20T12:32:28;2.90;99.90
22321;DHT22;11328;53.928;18.522;2022-11-20T12:41:18;2.90;99.90
22321;DHT22;11328;53.928;18.522;2022-11-20T13:00:21;2.90;99.90
22321;DHT22;11328;53.928;18.522;2022-11-20T13:08:04;2.80;99.90
22321;DHT22;11328;53.928;18.522;2022-11-20T13:17:06;2.70;99.90
22321;DHT22;11328;53.928;18.522;2022-11-20T13:19:53;2.60;99.90
22321;DHT22;11328;53.928;18.522;2022-11-20T13:22:31;2.50;99.90
22321;DHT22;11328;53.928;18.522;2022-11-20T13:25:21;2.40;99.90
22321;DHT22;11328;53.928;18.522;2022-11-20T13:30:47;2.30;99.90
22321;DHT22;11328;53.928;18.522;2022-11-20T13:33:34;2.30;99.90
22321;DHT22;11328;53.928;18.522;2022-11-20T13:36:21;2.20;99.90
22321;DHT22;11328;53.928;18.522;2022-11-20T13:38:54;2.10;99.90
22321;DHT22;11328;53.928;18.522;2022-11-20T13:41:34;2.10;99.90
22321;DHT22;11328;53.928;18.522;2022-11-20T13:44:22;2.10;99.90
22321;DHT22;11328;53.928;18.522;2022-11-20T13:46:53;2.00;99.90
22321;DHT22;11328;53.928;18.522;2022-11-20T13:49:25;2.00;99.90
22321;DHT22;11328;53.928;18.522;2022-11-20T13:55:11;1.90;99.90
22321;DHT22;11328;53.928;18.522;2022-11-20T14:01:10;1.80;99.90
22321;DHT22;11328;53.928;18.522;2022-11-20T14:03:44;1.80;99.90
22321;DHT22;11328;53.928;18.522;2022-11-20T14:06:34;1.80;99.90
22321;DHT22;11328;53.928;18.522;2022-11-20T14:09:13;1.70;99.90
22321;DHT22;11328;53.928;18.522;2022-11-20T14:11:52;1.70;99.90
22321;DHT22;11328;53.928;18.522;2022-11-20T14:14:21;1.70;99.90
22321;DHT22;11328;53.928;18.522;2022-11-20T14:16:51;1.60;99.90
22321;DHT22;11328;53.928;18.522;2022-11-20T14:27:28;1.50;99.90
22321;DHT22;11328;53.928;18.522;2022-11-20T14:29:55;1.50;99.90
22321;DHT22;11328;53.928;18.522;2022-11-20T14:32:27;1.50;99.90
22321;DHT22;11328;53.928;18.522;2022-11-20T14:34:59;1.40;99.90
22321;DHT22;11328;53.928;18.522;2022-11-20T14:37:37;1.40;99.90
22321;DHT22;11328;53.928;18.522;2022-11-20T14:40:31;1.40;99.90
22321;DHT22;11328;53.928;18.522;2022-11-20T14:43:25;1.40;99.90
22321;DHT22;11328;53.928;18.522;2022-11-20T14:46:08;1.30;99.90
22321;DHT22;11328;53.928;18.522;2022-11-20T14:48:47;1.30;99.90
22321;DHT22;11328;53.928;18.522;2022-11-20T14:51:33;1.30;99.90
22321;DHT22;11328;53.928;18.522;2022-11-20T14:54:12;1.20;99.90
22321;DHT22;11328;53.928;18.522;2022-11-20T14:56:53;1.30;99.90
22321;DHT22;11328;53.928;18.522;2022-11-20T14:59:25;1.30;99.90
22321;DHT22;11328;53.928;18.522;2022-11-20T15:01:57;1.30;99.90
22321;DHT22;11328;53.928;18.522;2022-11-20T15:04:29;1.20;99.90
22321;DHT22;11328;53.928;18.522;2022-11-20T15:06:58;1.30;99.90
22321;DHT22;11328;53.928;18.522;2022-11-20T15:09:26;1.30;99.90
22321;DHT22;11328;53.928;18.522;2022-11-20T15:11:59;1.20;99.90
22321;DHT22;11328;53.928;18.522;2022-11-20T15:14:29;1.30;99.90
22321;DHT22;11328;53.928;18.522;2022-11-20T15:16:59;1.30;99.90
22321;DHT22;11328;53.928;18.522;2022-11-20T15:19:29;1.20;99.90
22321;DHT22;11328;53.928;18.522;2022-11-20T15:21:57;1.30;99.90
22321;DHT22;11328;53.928;18.522;2022-11-20T15:24:24;1.30;99.90
22321;DHT22;11328;53.928;18.522;2022-11-20T15:26:51;1.30;99.90
22321;DHT22;11328;53.928;18.522;2022-11-20T15:29:19;1.30;99.90
22321;DHT22;11328;53.928;18.522;2022-11-20T15:31:48;1.20;99.90
22321;DHT22;11328;53.928;18.522;2022-11-20T15:34:17;1.30;99.90
22321;DHT22;11328;53.928;18.522;2022-11-20T15:36:45;1.30;99.90
22321;DHT22;11328;53.928;18.522;2022-11-20T15:39:12;1.30;99.90
22321;DHT22;11328;53.928;18.522;2022-11-20T15:41:40;1.30;99.90
22321;DHT22;11328;53.928;18.522;2022-11-20T15:44:08;1.30;99.90
22321;DHT22;11328;53.928;18.522;2022-11-20T15:46:39;1.40;99.90
22321;DHT22;11328;53.928;18.522;2022-11-20T15:49:13;1.40;99.90
22321;DHT22;11328;53.928;18.522;2022-11-20T15:51:47;1.40;99.90
22321;DHT22;11328;53.928;18.522;2022-11-20T15:54:21;1.40;99.90
22321;DHT22;11328;53.928;18.522;2022-11-20T15:56:49;1.40;99.90
22321;DHT22;11328;53.928;18.522;2022-11-20T15:59:20;1.50;99.90
22321;DHT22;11328;53.928;18.522;2022-11-20T16:01:47;1.50;99.90
22321;DHT22;11328;53.928;18.522;2022-11-20T16:04:16;1.50;99.90
22321;DHT22;11328;53.928;18.522;2022-11-20T16:06:43;1.50;99.90
22321;DHT22;11328;53.928;18.522;2022-11-20T16:09:10;1.50;99.90
22321;DHT22;11328;53.928;18.522;2022-11-20T16:11:37;1.50;99.90
22321;DHT22;11328;53.928;18.522;2022-11-20T16:14:05;1.50;99.90
22321;DHT22;11328;53.928;18.522;2022-11-20T16:16:52;1.50;99.90
22321;DHT22;11328;53.928;18.522;2022-11-20T16:19:19;1.50;99.90
22321;DHT22;11328;53.928;18.522;2022-11-20T16:21:46;1.50;99.90
22321;DHT22;11328;53.928;18.522;2022-11-20T16:24:14;1.60;99.90
22321;DHT22;11328;53.928;18.522;2022-11-20T16:26:42;1.60;99.90
22321;DHT22;11328;53.928;18.522;2022-11-20T16:29:10;1.60;99.90
22321;DHT22;11328;53.928;18.522;2022-11-20T16:31:37;1.60;99.90
22321;DHT22;11328;53.928;18.522;2022-11-20T16:34:07;1.70;99.90
22321;DHT22;11328;53.928;18.522;2022-11-20T16:36:42;1.70;99.90
22321;DHT22;11328;53.928;18.522;2022-11-20T16:39:11;1.70;99.90
22321;DHT22;11328;53.928;18.522;2022-11-20T16:41:41;1.70;99.90
22321;DHT22;11328;53.928;18.522;2022-11-20T16:44:09;1.80;99.90
22321;DHT22;11328;53.928;18.522;2022-11-20T16:46:37;1.80;99.90
22321;DHT22;11328;53.928;18.522;2022-11-20T16:49:11;1.80;99.90
22321;DHT22;11328;53.928;18.522;2022-11-20T16:51:39;1.80;99.90
22321;DHT22;11328;53.928;18.522;2022-11-20T16:54:08;1.80;99.90
22321;DHT22;11328;53.928;18.522;2022-11-20T16:56:36;1.80;99.90
22321;DHT22;11328;53.928;18.522;2022-11-20T16:59:06;1.80;99.90
22321;DHT22;11328;53.928;18.522;2022-11-20T17:01:33;1.90;99.90
22321;DHT22;11328;53.928;18.522;2022-11-20T17:04:05;1.90;99.90
22321;DHT22;11328;53.928;18.522;2022-11-20T17:06:37;1.90;99.90
22321;DHT22;11328;53.928;18.522;2022-11-20T17:09:07;1.90;99.90
22321;DHT22;11328;53.928;18.522;2022-11-20T17:11:36;1.90;99.90
22321;DHT22;11328;53.928;18.522;2022-11-20T17:14:04;1.90;99.90
22321;DHT22;11328;53.928;18.522;2022-11-20T17:16:36;1.90;99.90
22321;DHT22;11328;53.928;18.522;2022-11-20T17:19:03;1.90;99.90
22321;DHT22;11328;53.928;18.522;2022-11-20T17:21:32;1.90;99.90
22321;DHT22;11328;53.928;18.522;2022-11-20T17:24:05;1.90;99.90
22321;DHT22;11328;53.928;18.522;2022-11-20T17:26:35;2.00;99.90
22321;DHT22;11328;53.928;18.522;2022-11-20T17:29:07;2.00;99.90
22321;DHT22;11328;53.928;18.522;2022-11-20T17:31:37;2.00;99.90
22321;DHT22;11328;53.928;18.522;2022-11-20T17:34:06;1.90;99.90
22321;DHT22;11328;53.928;18.522;2022-11-20T17:36:36;1.90;99.90
22321;DHT22;11328;53.928;18.522;2022-11-20T17:39:14;1.90;99.90
22321;DHT22;11328;53.928;18.522;2022-11-20T17:41:43;1.90;99.90
22321;DHT22;11328;53.928;18.522;2022-11-20T17:44:11;1.90;99.90
22321;DHT22;11328;53.928;18.522;2022-11-20T17:46:39;1.90;99.90
22321;DHT22;11328;53.928;18.522;2022-11-20T17:49:06;1.80;99.90
22321;DHT22;11328;53.928;18.522;2022-11-20T17:51:33;1.70;99.90
22321;DHT22;11328;53.928;18.522;2022-11-20T17:54:03;1.70;99.90
22321;DHT22;11328;53.928;18.522;2022-11-20T17:56:34;1.70;99.90
22321;DHT22;11328;53.928;18.522;2022-11-20T17:59:20;1.70;99.90
22321;DHT22;11328;53.928;18.522;2022-11-20T18:01:47;1.70;99.90
22321;DHT22;11328;53.928;18.522;2022-11-20T18:04:15;1.70;99.90
22321;DHT22;11328;53.928;18.522;2022-11-20T18:06:43;1.70;99.90
22321;DHT22;11328;53.928;18.522;2022-11-20T18:09:10;1.70;99.90
22321;DHT22;11328;53.928;18.522;2022-11-20T18:11:40;1.70;99.90
22321;DHT22;11328;53.928;18.522;2022-11-20T18:14:12;1.60;99.90
22321;DHT22;11328;53.928;18.522;2022-11-20T18:17:07;1.60;99.90
22321;DHT22;11328;53.928;18.522;2022-11-20T18:19:40;1.60;99.90
22321;DHT22;11328;53.928;18.522;2022-11-20T18:22:31;1.60;99.90
22321;DHT22;11328;53.928;18.522;2022-11-20T18:24:59;1.60;99.90